sensor_id;sensor_type;location;lat;lon;timestamp;P1;durP1;ratioP1;P2;durP2;ratioP2
17079;SDS011;8655;57.106;-2.088;2023-02-03T00:00:31;1.80;;;1.03;;
17079;SDS011;8655;57.106;-2.088;2023-02-03T00:02:57;2.67;;;1.07;;
17079;SDS011;8655;57.106;-2.088;2023-02-03T00:05:23;2.13;;;1.10;;
17079;SDS011;8655;57.106;-2.088;2023-02-03T00:07:49;2.63;;;1.17;;
17079;SDS011;8655;57.106;-2.088;2023-02-03T00:10:15;2.20;;;1.27;;
17079;SDS011;8655;57.106;-2.088;2023-02-03T00:12:49;2.30;;;1.30;;
17079;SDS011;8655;57.106;-2.088;2023-02-03T00:15:16;3.80;;;1.30;;
17079;SDS011;8655;57.106;-2.088;2023-02-03T00:17:43;3.13;;;1.67;;
17079;SDS011;8655;57.106;-2.088;2023-02-03T00:20:09;2.77;;;1.40;;
17079;SDS011;8655;57.106;-2.088;2023-02-03T00:22:35;4.07;;;1.60;;
17079;SDS011;8655;57.106;-2.088;2023-02-03T00:25:01;3.87;;;1.50;;
17079;SDS011;8655;57.106;-2.088;2023-02-03T00:27:27;6.50;;;2.00;;
17079;SDS011;8655;57.106;-2.088;2023-02-03T00:29:53;4.90;;;2.03;;
17079;SDS011;8655;57.106;-2.088;2023-02-03T00:32:18;4.80;;;1.80;;
17079;SDS011;8655;57.106;-2.088;2023-02-03T00:34:44;4.80;;;1.90;;
17079;SDS011;8655;57.106;-2.088;2023-02-03T00:37:11;7.30;;;2.23;;
17079;SDS011;8655;57.106;-2.088;2023-02-03T00:39:37;5.70;;;2.50;;
17079;SDS011;8655;57.106;-2.088;2023-02-03T00:42:03;5.70;;;2.17;;
17079;SDS011;8655;57.106;-2.088;2023-02-03T00:44:30;4.67;;;2.00;;
17079;SDS011;8655;57.106;-2.088;2023-02-03T00:46:56;6.03;;;2.20;;
17079;SDS011;8655;57.106;-2.088;2023-02-03T00:49:22;6.20;;;2.27;;
17079;SDS011;8655;57.106;-2.088;2023-02-03T00:51:47;8.37;;;2.10;;
17079;SDS011;8655;57.106;-2.088;2023-02-03T00:54:13;6.60;;;2.20;;
17079;SDS011;8655;57.106;-2.088;2023-02-03T00:56:39;6.30;;;2.43;;
17079;SDS011;8655;57.106;-2.088;2023-02-03T00:59:05;5.63;;;2.37;;
17079;SDS011;8655;57.106;-2.088;2023-02-03T01:01:31;6.03;;;2.70;;
17079;SDS011;8655;57.106;-2.088;2023-02-03T01:03:57;6.30;;;2.57;;
17079;SDS011;8655;57.106;-2.088;2023-02-03T01:06:24;6.33;;;2.40;;
17079;SDS011;8655;57.106;-2.088;2023-02-03T01:08:50;7.93;;;2.47;;
17079;SDS011;8655;57.106;-2.088;2023-02-03T01:11:20;5.67;;;2.63;;
17079;SDS011;8655;57.106;-2.088;2023-02-03T01:13:47;5.47;;;2.30;;
17079;SDS011;8655;57.106;-2.088;2023-02-03T01:16:15;8.60;;;2.63;;
17079;SDS011;8655;57.106;-2.088;2023-02-03T01:18:43;7.97;;;2.33;;
17079;SDS011;8655;57.106;-2.088;2023-02-03T01:21:10;7.23;;;2.80;;
17079;SDS011;8655;57.106;-2.088;2023-02-03T01:23:37;6.63;;;2.53;;
17079;SDS011;8655;57.106;-2.088;2023-02-03T01:26:04;7.60;;;2.30;;
17079;SDS011;8655;57.106;-2.088;2023-02-03T01:28:31;9.48;;;2.70;;
17079;SDS011;8655;57.106;-2.088;2023-02-03T01:31:07;7.00;;;2.78;;
17079;SDS011;8655;57.106;-2.088;2023-02-03T01:33:40;9.65;;;2.72;;
17079;SDS011;8655;57.106;-2.088;2023-02-03T01:36:08;6.57;;;3.00;;
17079;SDS011;8655;57.106;-2.088;2023-02-03T01:38:35;9.23;;;3.20;;
17079;SDS011;8655;57.106;-2.088;2023-02-03T01:41:02;6.03;;;2.60;;
17079;SDS011;8655;57.106;-2.088;2023-02-03T01:43:30;7.33;;;2.83;;
17079;SDS011;8655;57.106;-2.088;2023-02-03T01:45:58;8.43;;;3.03;;
17079;SDS011;8655;57.106;-2.088;2023-02-03T01:48:34;7.43;;;2.72;;
17079;SDS011;8655;57.106;-2.088;2023-02-03T01:51:00;6.77;;;2.70;;
17079;SDS011;8655;57.106;-2.088;2023-02-03T01:53:28;7.73;;;2.73;;
17079;SDS011;8655;57.106;-2.088;2023-02-03T01:55:54;5.90;;;2.67;;
17079;SDS011;8655;57.106;-2.088;2023-02-03T01:58:25;7.15;;;2.55;;
17079;SDS011;8655;57.106;-2.088;2023-02-03T02:00:53;7.47;;;3.07;;
17079;SDS011;8655;57.106;-2.088;2023-02-03T02:03:22;7.77;;;2.77;;
17079;SDS011;8655;57.106;-2.088;2023-02-03T02:06:05;6.67;;;2.80;;
17079;SDS011;8655;57.106;-2.088;2023-02-03T02:08:33;7.33;;;2.87;;
17079;SDS011;8655;57.106;-2.088;2023-02-03T02:11:00;8.17;;;2.60;;
17079;SDS011;8655;57.106;-2.088;2023-02-03T02:13:30;6.73;;;2.80;;
17079;SDS011;8655;57.106;-2.088;2023-02-03T02:18:58;8.97;;;3.10;;
17079;SDS011;8655;57.106;-2.088;2023-02-03T02:39:09;6.93;;;2.87;;
17079;SDS011;8655;57.106;-2.088;2023-02-03T02:44:13;7.73;;;2.70;;
17079;SDS011;8655;57.106;-2.088;2023-02-03T02:46:56;9.40;;;2.80;;
17079;SDS011;8655;57.106;-2.088;2023-02-03T02:49:32;8.47;;;3.40;;
17079;SDS011;8655;57.106;-2.088;2023-02-03T02:52:04;8.90;;;3.10;;
17079;SDS011;8655;57.106;-2.088;2023-02-03T02:54:32;7.60;;;3.07;;
17079;SDS011;8655;57.106;-2.088;2023-02-03T02:57:03;6.30;;;2.65;;
17079;SDS011;8655;57.106;-2.088;2023-02-03T02:59:33;9.07;;;3.30;;
17079;SDS011;8655;57.106;-2.088;2023-02-03T03:01:59;10.03;;;3.13;;
17079;SDS011;8655;57.106;-2.088;2023-02-03T03:04:26;7.27;;;2.90;;
17079;SDS011;8655;57.106;-2.088;2023-02-03T03:07:10;9.13;;;3.37;;
17079;SDS011;8655;57.106;-2.088;2023-02-03T03:09:45;7.13;;;3.07;;
17079;SDS011;8655;57.106;-2.088;2023-02-03T03:14:47;7.77;;;2.90;;
17079;SDS011;8655;57.106;-2.088;2023-02-03T03:17:18;9.80;;;3.30;;
17079;SDS011;8655;57.106;-2.088;2023-02-03T03:19:53;7.57;;;3.27;;
17079;SDS011;8655;57.106;-2.088;2023-02-03T03:22:23;8.50;;;3.00;;
17079;SDS011;8655;57.106;-2.088;2023-02-03T03:24:56;8.33;;;3.23;;
17079;SDS011;8655;57.106;-2.088;2023-02-03T03:27:28;7.83;;;3.07;;
17079;SDS011;8655;57.106;-2.088;2023-02-03T03:29:59;8.10;;;3.27;;
17079;SDS011;8655;57.106;-2.088;2023-02-03T03:32:32;7.97;;;3.17;;
17079;SDS011;8655;57.106;-2.088;2023-02-03T03:34:59;7.90;;;3.00;;
17079;SDS011;8655;57.106;-2.088;2023-02-03T03:42:39;7.37;;;2.77;;
17079;SDS011;8655;57.106;-2.088;2023-02-03T03:48:18;7.83;;;2.93;;
17079;SDS011;8655;57.106;-2.088;2023-02-03T03:53:38;8.13;;;2.73;;
17079;SDS011;8655;57.106;-2.088;2023-02-03T03:56:08;7.97;;;3.17;;
17079;SDS011;8655;57.106;-2.088;2023-02-03T03:58:39;6.50;;;3.07;;
17079;SDS011;8655;57.106;-2.088;2023-02-03T04:01:10;7.63;;;2.93;;
17079;SDS011;8655;57.106;-2.088;2023-02-03T04:03:49;8.03;;;3.10;;
17079;SDS011;8655;57.106;-2.088;2023-02-03T04:06:19;6.63;;;2.93;;
17079;SDS011;8655;57.106;-2.088;2023-02-03T04:08:45;7.37;;;3.10;;
17079;SDS011;8655;57.106;-2.088;2023-02-03T04:11:10;6.77;;;2.67;;
17079;SDS011;8655;57.106;-2.088;2023-02-03T04:13:56;6.13;;;2.67;;
17079;SDS011;8655;57.106;-2.088;2023-02-03T04:16:22;7.07;;;2.53;;
17079;SDS011;8655;57.106;-2.088;2023-02-03T04:18:47;6.30;;;2.50;;
17079;SDS011;8655;57.106;-2.088;2023-02-03T04:21:13;6.30;;;2.70;;
17079;SDS011;8655;57.106;-2.088;2023-02-03T04:23:39;5.80;;;2.40;;
17079;SDS011;8655;57.106;-2.088;2023-02-03T04:26:04;6.13;;;3.00;;
17079;SDS011;8655;57.106;-2.088;2023-02-03T04:28:30;8.27;;;2.43;;
17079;SDS011;8655;57.106;-2.088;2023-02-03T04:30:58;7.27;;;2.57;;
17079;SDS011;8655;57.106;-2.088;2023-02-03T04:33:25;7.37;;;2.77;;
17079;SDS011;8655;57.106;-2.088;2023-02-03T04:35:50;5.77;;;2.43;;
17079;SDS011;8655;57.106;-2.088;2023-02-03T04:38:16;6.27;;;2.37;;
17079;SDS011;8655;57.106;-2.088;2023-02-03T04:40:42;4.80;;;2.07;;
17079;SDS011;8655;57.106;-2.088;2023-02-03T04:43:09;6.13;;;2.53;;
17079;SDS011;8655;57.106;-2.088;2023-02-03T04:45:36;5.03;;;2.30;;
17079;SDS011;8655;57.106;-2.088;2023-02-03T04:48:02;8.53;;;2.90;;
17079;SDS011;8655;57.106;-2.088;2023-02-03T04:50:29;4.70;;;2.23;;
17079;SDS011;8655;57.106;-2.088;2023-02-03T04:52:55;5.33;;;2.10;;
17079;SDS011;8655;57.106;-2.088;2023-02-03T04:55:24;6.17;;;2.40;;
17079;SDS011;8655;57.106;-2.088;2023-02-03T04:57:54;6.23;;;2.57;;
17079;SDS011;8655;57.106;-2.088;2023-02-03T05:00:23;5.60;;;2.50;;
17079;SDS011;8655;57.106;-2.088;2023-02-03T05:02:50;6.10;;;2.33;;
17079;SDS011;8655;57.106;-2.088;2023-02-03T05:05:15;4.73;;;2.20;;
17079;SDS011;8655;57.106;-2.088;2023-02-03T05:07:41;6.97;;;2.40;;
17079;SDS011;8655;57.106;-2.088;2023-02-03T05:10:07;5.33;;;2.30;;
17079;SDS011;8655;57.106;-2.088;2023-02-03T05:12:33;6.83;;;2.47;;
17079;SDS011;8655;57.106;-2.088;2023-02-03T05:14:59;4.10;;;2.10;;
17079;SDS011;8655;57.106;-2.088;2023-02-03T05:17:24;5.67;;;2.27;;
17079;SDS011;8655;57.106;-2.088;2023-02-03T05:19:50;6.77;;;2.30;;
17079;SDS011;8655;57.106;-2.088;2023-02-03T05:22:16;5.37;;;2.40;;
17079;SDS011;8655;57.106;-2.088;2023-02-03T05:24:41;5.20;;;2.20;;
17079;SDS011;8655;57.106;-2.088;2023-02-03T05:27:07;4.57;;;2.30;;
17079;SDS011;8655;57.106;-2.088;2023-02-03T05:29:33;5.03;;;2.23;;
17079;SDS011;8655;57.106;-2.088;2023-02-03T05:31:58;4.60;;;2.50;;
17079;SDS011;8655;57.106;-2.088;2023-02-03T05:34:24;4.40;;;2.10;;
17079;SDS011;8655;57.106;-2.088;2023-02-03T05:36:49;5.07;;;2.47;;
17079;SDS011;8655;57.106;-2.088;2023-02-03T05:39:15;5.70;;;2.17;;
17079;SDS011;8655;57.106;-2.088;2023-02-03T05:41:41;6.40;;;2.23;;
17079;SDS011;8655;57.106;-2.088;2023-02-03T05:44:16;5.53;;;2.30;;
17079;SDS011;8655;57.106;-2.088;2023-02-03T05:46:42;5.90;;;2.43;;
17079;SDS011;8655;57.106;-2.088;2023-02-03T05:49:08;4.97;;;2.07;;
17079;SDS011;8655;57.106;-2.088;2023-02-03T05:51:34;4.90;;;2.13;;
17079;SDS011;8655;57.106;-2.088;2023-02-03T05:54:00;4.13;;;1.97;;
17079;SDS011;8655;57.106;-2.088;2023-02-03T05:56:25;4.57;;;2.20;;
17079;SDS011;8655;57.106;-2.088;2023-02-03T05:58:51;4.67;;;2.10;;
17079;SDS011;8655;57.106;-2.088;2023-02-03T06:01:17;3.67;;;1.90;;
17079;SDS011;8655;57.106;-2.088;2023-02-03T06:03:43;3.70;;;2.00;;
17079;SDS011;8655;57.106;-2.088;2023-02-03T06:06:09;3.90;;;1.77;;
17079;SDS011;8655;57.106;-2.088;2023-02-03T06:08:35;4.33;;;1.77;;
17079;SDS011;8655;57.106;-2.088;2023-02-03T06:11:01;3.80;;;2.10;;
17079;SDS011;8655;57.106;-2.088;2023-02-03T06:13:26;5.77;;;2.20;;
17079;SDS011;8655;57.106;-2.088;2023-02-03T06:15:52;4.37;;;2.00;;
17079;SDS011;8655;57.106;-2.088;2023-02-03T06:18:18;5.37;;;2.07;;
17079;SDS011;8655;57.106;-2.088;2023-02-03T06:20:46;5.00;;;2.10;;
17079;SDS011;8655;57.106;-2.088;2023-02-03T06:23:12;4.07;;;1.80;;
17079;SDS011;8655;57.106;-2.088;2023-02-03T06:25:37;5.67;;;2.07;;
17079;SDS011;8655;57.106;-2.088;2023-02-03T06:28:03;5.57;;;1.90;;
17079;SDS011;8655;57.106;-2.088;2023-02-03T06:30:29;4.13;;;1.77;;
17079;SDS011;8655;57.106;-2.088;2023-02-03T06:32:54;3.33;;;2.00;;
17079;SDS011;8655;57.106;-2.088;2023-02-03T06:35:20;4.00;;;1.77;;
17079;SDS011;8655;57.106;-2.088;2023-02-03T06:37:46;4.83;;;2.20;;
17079;SDS011;8655;57.106;-2.088;2023-02-03T06:40:12;4.87;;;1.73;;
17079;SDS011;8655;57.106;-2.088;2023-02-03T06:42:37;3.27;;;1.97;;
17079;SDS011;8655;57.106;-2.088;2023-02-03T06:45:03;3.80;;;1.60;;
17079;SDS011;8655;57.106;-2.088;2023-02-03T06:47:29;4.47;;;1.83;;
17079;SDS011;8655;57.106;-2.088;2023-02-03T06:49:55;3.67;;;1.70;;
17079;SDS011;8655;57.106;-2.088;2023-02-03T06:52:21;4.37;;;1.90;;
17079;SDS011;8655;57.106;-2.088;2023-02-03T06:54:46;4.17;;;1.83;;
17079;SDS011;8655;57.106;-2.088;2023-02-03T06:57:12;3.63;;;1.83;;
17079;SDS011;8655;57.106;-2.088;2023-02-03T06:59:38;4.10;;;1.70;;
17079;SDS011;8655;57.106;-2.088;2023-02-03T07:02:03;4.23;;;1.60;;
17079;SDS011;8655;57.106;-2.088;2023-02-03T07:04:29;3.67;;;1.80;;
17079;SDS011;8655;57.106;-2.088;2023-02-03T07:06:55;5.27;;;2.20;;
17079;SDS011;8655;57.106;-2.088;2023-02-03T07:09:21;2.93;;;1.60;;
17079;SDS011;8655;57.106;-2.088;2023-02-03T07:11:47;3.40;;;1.73;;
17079;SDS011;8655;57.106;-2.088;2023-02-03T07:14:13;2.60;;;1.50;;
17079;SDS011;8655;57.106;-2.088;2023-02-03T07:16:39;4.03;;;2.00;;
17079;SDS011;8655;57.106;-2.088;2023-02-03T07:19:04;3.10;;;1.53;;
17079;SDS011;8655;57.106;-2.088;2023-02-03T07:21:30;3.40;;;1.80;;
17079;SDS011;8655;57.106;-2.088;2023-02-03T07:23:56;3.17;;;1.67;;
17079;SDS011;8655;57.106;-2.088;2023-02-03T07:26:22;4.30;;;1.60;;
17079;SDS011;8655;57.106;-2.088;2023-02-03T07:28:49;3.03;;;1.57;;
17079;SDS011;8655;57.106;-2.088;2023-02-03T07:31:16;3.40;;;1.47;;
17079;SDS011;8655;57.106;-2.088;2023-02-03T07:33:42;2.97;;;1.43;;
17079;SDS011;8655;57.106;-2.088;2023-02-03T07:36:08;4.23;;;1.70;;
17079;SDS011;8655;57.106;-2.088;2023-02-03T07:38:35;3.60;;;1.80;;
17079;SDS011;8655;57.106;-2.088;2023-02-03T07:41:02;3.87;;;1.70;;
17079;SDS011;8655;57.106;-2.088;2023-02-03T07:43:28;3.17;;;1.45;;
17079;SDS011;8655;57.106;-2.088;2023-02-03T07:45:54;4.50;;;1.80;;
17079;SDS011;8655;57.106;-2.088;2023-02-03T07:48:20;3.87;;;1.73;;
17079;SDS011;8655;57.106;-2.088;2023-02-03T07:50:48;2.83;;;1.60;;
17079;SDS011;8655;57.106;-2.088;2023-02-03T07:53:15;3.67;;;1.80;;
17079;SDS011;8655;57.106;-2.088;2023-02-03T07:55:41;3.47;;;1.70;;
17079;SDS011;8655;57.106;-2.088;2023-02-03T07:58:06;4.03;;;1.90;;
17079;SDS011;8655;57.106;-2.088;2023-02-03T08:00:32;3.92;;;1.67;;
17079;SDS011;8655;57.106;-2.088;2023-02-03T08:02:58;3.90;;;1.60;;
17079;SDS011;8655;57.106;-2.088;2023-02-03T08:05:24;3.10;;;1.73;;
17079;SDS011;8655;57.106;-2.088;2023-02-03T08:07:49;4.35;;;1.92;;
17079;SDS011;8655;57.106;-2.088;2023-02-03T08:10:15;3.08;;;1.70;;
17079;SDS011;8655;57.106;-2.088;2023-02-03T08:12:42;4.30;;;1.70;;
17079;SDS011;8655;57.106;-2.088;2023-02-03T08:15:08;3.57;;;1.67;;
17079;SDS011;8655;57.106;-2.088;2023-02-03T08:17:35;3.20;;;1.60;;
17079;SDS011;8655;57.106;-2.088;2023-02-03T08:20:04;3.77;;;1.50;;
17079;SDS011;8655;57.106;-2.088;2023-02-03T08:22:30;3.23;;;1.70;;
17079;SDS011;8655;57.106;-2.088;2023-02-03T08:24:56;3.33;;;1.52;;
17079;SDS011;8655;57.106;-2.088;2023-02-03T08:27:21;3.53;;;1.73;;
17079;SDS011;8655;57.106;-2.088;2023-02-03T08:29:47;4.25;;;1.80;;
17079;SDS011;8655;57.106;-2.088;2023-02-03T08:32:16;2.58;;;1.50;;
17079;SDS011;8655;57.106;-2.088;2023-02-03T08:34:45;3.40;;;1.70;;
17079;SDS011;8655;57.106;-2.088;2023-02-03T08:37:11;2.95;;;1.70;;
17079;SDS011;8655;57.106;-2.088;2023-02-03T08:39:38;4.40;;;1.73;;
17079;SDS011;8655;57.106;-2.088;2023-02-03T08:42:05;2.72;;;1.33;;
17079;SDS011;8655;57.106;-2.088;2023-02-03T08:44:31;4.13;;;1.85;;
17079;SDS011;8655;57.106;-2.088;2023-02-03T08:46:58;2.75;;;1.25;;
17079;SDS011;8655;57.106;-2.088;2023-02-03T08:49:25;2.42;;;1.40;;
17079;SDS011;8655;57.106;-2.088;2023-02-03T08:51:52;2.72;;;1.52;;
17079;SDS011;8655;57.106;-2.088;2023-02-03T08:54:19;4.03;;;1.67;;
17079;SDS011;8655;57.106;-2.088;2023-02-03T08:56:46;2.87;;;1.30;;
17079;SDS011;8655;57.106;-2.088;2023-02-03T08:59:12;2.75;;;1.52;;
17079;SDS011;8655;57.106;-2.088;2023-02-03T09:01:39;3.13;;;1.55;;
17079;SDS011;8655;57.106;-2.088;2023-02-03T09:04:05;3.28;;;1.60;;
17079;SDS011;8655;57.106;-2.088;2023-02-03T09:06:32;3.63;;;1.60;;
17079;SDS011;8655;57.106;-2.088;2023-02-03T09:08:59;2.08;;;1.42;;
17079;SDS011;8655;57.106;-2.088;2023-02-03T09:11:25;3.03;;;1.60;;
17079;SDS011;8655;57.106;-2.088;2023-02-03T09:13:50;4.30;;;1.73;;
17079;SDS011;8655;57.106;-2.088;2023-02-03T09:16:17;4.15;;;1.73;;
17079;SDS011;8655;57.106;-2.088;2023-02-03T09:18:43;3.83;;;1.80;;
17079;SDS011;8655;57.106;-2.088;2023-02-03T09:21:10;3.47;;;1.50;;
17079;SDS011;8655;57.106;-2.088;2023-02-03T09:23:37;2.53;;;1.55;;
17079;SDS011;8655;57.106;-2.088;2023-02-03T09:26:03;5.38;;;1.85;;
17079;SDS011;8655;57.106;-2.088;2023-02-03T09:28:30;3.00;;;1.40;;
17079;SDS011;8655;57.106;-2.088;2023-02-03T09:31:00;3.15;;;1.50;;
17079;SDS011;8655;57.106;-2.088;2023-02-03T09:33:27;4.05;;;1.60;;
17079;SDS011;8655;57.106;-2.088;2023-02-03T09:35:54;3.80;;;1.60;;
17079;SDS011;8655;57.106;-2.088;2023-02-03T09:38:20;3.97;;;1.47;;
17079;SDS011;8655;57.106;-2.088;2023-02-03T09:40:56;3.13;;;1.57;;
17079;SDS011;8655;57.106;-2.088;2023-02-03T09:46:01;2.23;;;1.33;;
17079;SDS011;8655;57.106;-2.088;2023-02-03T09:48:42;2.80;;;1.50;;
17079;SDS011;8655;57.106;-2.088;2023-02-03T09:51:19;3.70;;;1.60;;
17079;SDS011;8655;57.106;-2.088;2023-02-03T09:53:56;3.80;;;1.63;;
17079;SDS011;8655;57.106;-2.088;2023-02-03T09:56:28;4.10;;;1.88;;
17079;SDS011;8655;57.106;-2.088;2023-02-03T09:58:57;3.17;;;1.57;;
17079;SDS011;8655;57.106;-2.088;2023-02-03T10:20:12;2.50;;;1.40;;
17079;SDS011;8655;57.106;-2.088;2023-02-03T10:22:44;3.50;;;1.57;;
17079;SDS011;8655;57.106;-2.088;2023-02-03T10:25:18;3.47;;;1.60;;
17079;SDS011;8655;57.106;-2.088;2023-02-03T10:27:50;2.90;;;1.60;;
17079;SDS011;8655;57.106;-2.088;2023-02-03T10:30:23;2.10;;;1.30;;
17079;SDS011;8655;57.106;-2.088;2023-02-03T10:33:01;3.40;;;1.60;;
17079;SDS011;8655;57.106;-2.088;2023-02-03T10:35:35;3.73;;;1.70;;
17079;SDS011;8655;57.106;-2.088;2023-02-03T10:38:14;3.73;;;1.77;;
17079;SDS011;8655;57.106;-2.088;2023-02-03T10:40:51;3.33;;;1.60;;
17079;SDS011;8655;57.106;-2.088;2023-02-03T10:43:17;4.67;;;1.67;;
17079;SDS011;8655;57.106;-2.088;2023-02-03T10:46:01;3.60;;;1.40;;
17079;SDS011;8655;57.106;-2.088;2023-02-03T10:48:27;3.73;;;1.47;;
17079;SDS011;8655;57.106;-2.088;2023-02-03T10:50:53;3.47;;;1.50;;
17079;SDS011;8655;57.106;-2.088;2023-02-03T10:56:01;3.10;;;1.67;;
17079;SDS011;8655;57.106;-2.088;2023-02-03T10:58:30;2.43;;;1.47;;
17079;SDS011;8655;57.106;-2.088;2023-02-03T11:01:11;2.77;;;1.50;;
17079;SDS011;8655;57.106;-2.088;2023-02-03T11:04:22;2.70;;;1.63;;
17079;SDS011;8655;57.106;-2.088;2023-02-03T11:06:29;3.33;;;1.40;;
17079;SDS011;8655;57.106;-2.088;2023-02-03T11:08:56;5.07;;;1.90;;
17079;SDS011;8655;57.106;-2.088;2023-02-03T11:14:31;5.47;;;2.00;;
17079;SDS011;8655;57.106;-2.088;2023-02-03T11:16:41;2.90;;;1.40;;
17079;SDS011;8655;57.106;-2.088;2023-02-03T11:19:20;3.20;;;1.30;;
17079;SDS011;8655;57.106;-2.088;2023-02-03T11:21:47;3.13;;;1.60;;
17079;SDS011;8655;57.106;-2.088;2023-02-03T11:24:36;3.40;;;1.85;;
17079;SDS011;8655;57.106;-2.088;2023-02-03T11:27:05;3.70;;;1.93;;
17079;SDS011;8655;57.106;-2.088;2023-02-03T11:29:37;2.95;;;1.40;;
17079;SDS011;8655;57.106;-2.088;2023-02-03T11:32:23;3.37;;;1.60;;
17079;SDS011;8655;57.106;-2.088;2023-02-03T11:34:57;2.70;;;1.50;;
17079;SDS011;8655;57.106;-2.088;2023-02-03T11:37:42;3.53;;;1.43;;
17079;SDS011;8655;57.106;-2.088;2023-02-03T11:42:39;3.70;;;1.60;;
17079;SDS011;8655;57.106;-2.088;2023-02-03T12:02:12;3.40;;;1.53;;
17079;SDS011;8655;57.106;-2.088;2023-02-03T12:22:03;3.50;;;1.63;;
17079;SDS011;8655;57.106;-2.088;2023-02-03T12:27:38;3.77;;;1.93;;
17079;SDS011;8655;57.106;-2.088;2023-02-03T12:30:34;3.57;;;1.50;;
17079;SDS011;8655;57.106;-2.088;2023-02-03T12:35:48;2.55;;;1.42;;
17079;SDS011;8655;57.106;-2.088;2023-02-03T12:38:42;3.00;;;1.70;;
17079;SDS011;8655;57.106;-2.088;2023-02-03T12:41:17;3.57;;;1.70;;
17079;SDS011;8655;57.106;-2.088;2023-02-03T12:43:49;3.27;;;1.53;;
17079;SDS011;8655;57.106;-2.088;2023-02-03T12:51:23;3.23;;;1.70;;
17079;SDS011;8655;57.106;-2.088;2023-02-03T12:53:59;3.63;;;1.83;;
17079;SDS011;8655;57.106;-2.088;2023-02-03T12:56:39;3.37;;;1.50;;
17079;SDS011;8655;57.106;-2.088;2023-02-03T12:59:21;5.37;;;1.93;;
17079;SDS011;8655;57.106;-2.088;2023-02-03T13:01:56;4.47;;;1.83;;
17079;SDS011;8655;57.106;-2.088;2023-02-03T13:04:30;4.53;;;1.70;;
17079;SDS011;8655;57.106;-2.088;2023-02-03T13:20:45;3.23;;;1.57;;
17079;SDS011;8655;57.106;-2.088;2023-02-03T13:23:12;3.67;;;1.93;;
17079;SDS011;8655;57.106;-2.088;2023-02-03T13:37:22;3.03;;;1.80;;
17079;SDS011;8655;57.106;-2.088;2023-02-03T13:40:13;3.63;;;1.60;;
17079;SDS011;8655;57.106;-2.088;2023-02-03T13:42:45;3.20;;;1.67;;
17079;SDS011;8655;57.106;-2.088;2023-02-03T13:48:09;4.73;;;2.10;;
17079;SDS011;8655;57.106;-2.088;2023-02-03T13:50:35;2.93;;;1.60;;
17079;SDS011;8655;57.106;-2.088;2023-02-03T13:53:03;2.40;;;1.50;;
17079;SDS011;8655;57.106;-2.088;2023-02-03T13:55:38;3.57;;;1.63;;
17079;SDS011;8655;57.106;-2.088;2023-02-03T13:58:07;3.97;;;1.70;;
17079;SDS011;8655;57.106;-2.088;2023-02-03T14:01:04;4.17;;;2.00;;
17079;SDS011;8655;57.106;-2.088;2023-02-03T14:03:49;3.17;;;1.80;;
17079;SDS011;8655;57.106;-2.088;2023-02-03T14:11:45;2.63;;;1.50;;
17079;SDS011;8655;57.106;-2.088;2023-02-03T14:16:49;2.53;;;1.50;;
17079;SDS011;8655;57.106;-2.088;2023-02-03T14:24:21;3.90;;;1.60;;
17079;SDS011;8655;57.106;-2.088;2023-02-03T14:26:48;2.80;;;1.80;;
17079;SDS011;8655;57.106;-2.088;2023-02-03T14:29:23;2.50;;;1.47;;
17079;SDS011;8655;57.106;-2.088;2023-02-03T14:34:40;3.07;;;1.63;;
17079;SDS011;8655;57.106;-2.088;2023-02-03T14:37:20;2.93;;;1.60;;
17079;SDS011;8655;57.106;-2.088;2023-02-03T14:48:05;2.80;;;1.60;;
17079;SDS011;8655;57.106;-2.088;2023-02-03T14:51:01;3.43;;;1.77;;
17079;SDS011;8655;57.106;-2.088;2023-02-03T14:59:23;3.27;;;1.60;;
17079;SDS011;8655;57.106;-2.088;2023-02-03T15:04:27;2.33;;;1.43;;
17079;SDS011;8655;57.106;-2.088;2023-02-03T15:06:53;3.00;;;1.60;;
17079;SDS011;8655;57.106;-2.088;2023-02-03T15:11:45;2.73;;;1.60;;
17079;SDS011;8655;57.106;-2.088;2023-02-03T15:14:21;3.53;;;1.70;;
17079;SDS011;8655;57.106;-2.088;2023-02-03T15:16:52;2.73;;;1.50;;
17079;SDS011;8655;57.106;-2.088;2023-02-03T15:19:24;3.63;;;1.80;;
17079;SDS011;8655;57.106;-2.088;2023-02-03T15:21:52;4.57;;;1.63;;
17079;SDS011;8655;57.106;-2.088;2023-02-03T15:24:19;2.53;;;1.60;;
17079;SDS011;8655;57.106;-2.088;2023-02-03T15:26:50;2.83;;;1.80;;
17079;SDS011;8655;57.106;-2.088;2023-02-03T15:29:20;4.17;;;1.80;;
17079;SDS011;8655;57.106;-2.088;2023-02-03T15:31:49;2.40;;;1.57;;
17079;SDS011;8655;57.106;-2.088;2023-02-03T15:34:26;3.00;;;1.60;;
17079;SDS011;8655;57.106;-2.088;2023-02-03T15:37:01;4.47;;;1.47;;
17079;SDS011;8655;57.106;-2.088;2023-02-03T15:42:14;4.03;;;1.70;;
17079;SDS011;8655;57.106;-2.088;2023-02-03T15:47:46;4.33;;;1.70;;
17079;SDS011;8655;57.106;-2.088;2023-02-03T15:50:32;2.27;;;1.70;;
17079;SDS011;8655;57.106;-2.088;2023-02-03T15:53:09;4.10;;;1.70;;
17079;SDS011;8655;57.106;-2.088;2023-02-03T15:55:45;2.97;;;1.63;;
17079;SDS011;8655;57.106;-2.088;2023-02-03T15:58:18;4.10;;;2.00;;
17079;SDS011;8655;57.106;-2.088;2023-02-03T16:00:51;3.27;;;2.00;;
17079;SDS011;8655;57.106;-2.088;2023-02-03T16:03:27;3.37;;;1.83;;
17079;SDS011;8655;57.106;-2.088;2023-02-03T16:09:04;3.43;;;2.00;;
17079;SDS011;8655;57.106;-2.088;2023-02-03T16:11:35;3.67;;;2.00;;
17079;SDS011;8655;57.106;-2.088;2023-02-03T16:14:05;3.53;;;2.00;;
17079;SDS011;8655;57.106;-2.088;2023-02-03T16:19:11;2.50;;;1.73;;
17079;SDS011;8655;57.106;-2.088;2023-02-03T16:30:14;3.43;;;1.77;;
17079;SDS011;8655;57.106;-2.088;2023-02-03T16:35:52;4.03;;;2.17;;
17079;SDS011;8655;57.106;-2.088;2023-02-03T16:38:37;4.43;;;2.10;;
17079;SDS011;8655;57.106;-2.088;2023-02-03T16:41:21;4.87;;;2.10;;
17079;SDS011;8655;57.106;-2.088;2023-02-03T16:44:07;3.23;;;2.20;;
17079;SDS011;8655;57.106;-2.088;2023-02-03T16:46:54;3.37;;;1.80;;
17079;SDS011;8655;57.106;-2.088;2023-02-03T16:49:39;4.43;;;2.07;;
17079;SDS011;8655;57.106;-2.088;2023-02-03T16:52:23;5.63;;;2.10;;
17079;SDS011;8655;57.106;-2.088;2023-02-03T16:54:49;5.43;;;2.50;;
17079;SDS011;8655;57.106;-2.088;2023-02-03T16:57:15;3.47;;;1.97;;
17079;SDS011;8655;57.106;-2.088;2023-02-03T16:59:40;4.23;;;1.93;;
17079;SDS011;8655;57.106;-2.088;2023-02-03T17:02:06;4.23;;;2.40;;
17079;SDS011;8655;57.106;-2.088;2023-02-03T17:04:31;4.60;;;2.03;;
17079;SDS011;8655;57.106;-2.088;2023-02-03T17:06:57;2.93;;;1.83;;
17079;SDS011;8655;57.106;-2.088;2023-02-03T17:09:23;3.73;;;1.93;;
17079;SDS011;8655;57.106;-2.088;2023-02-03T17:11:49;4.60;;;2.30;;
17079;SDS011;8655;57.106;-2.088;2023-02-03T17:14:15;3.10;;;1.90;;
17079;SDS011;8655;57.106;-2.088;2023-02-03T17:16:41;3.33;;;1.73;;
17079;SDS011;8655;57.106;-2.088;2023-02-03T17:19:10;3.20;;;1.67;;
17079;SDS011;8655;57.106;-2.088;2023-02-03T17:21:36;4.30;;;2.17;;
17079;SDS011;8655;57.106;-2.088;2023-02-03T17:24:02;4.13;;;2.20;;
17079;SDS011;8655;57.106;-2.088;2023-02-03T17:26:28;4.57;;;2.20;;
17079;SDS011;8655;57.106;-2.088;2023-02-03T17:28:53;3.47;;;2.10;;
17079;SDS011;8655;57.106;-2.088;2023-02-03T17:31:19;3.90;;;2.30;;
17079;SDS011;8655;57.106;-2.088;2023-02-03T17:33:48;4.20;;;2.10;;
17079;SDS011;8655;57.106;-2.088;2023-02-03T17:36:16;2.33;;;1.53;;
17079;SDS011;8655;57.106;-2.088;2023-02-03T17:38:47;3.93;;;2.43;;
17079;SDS011;8655;57.106;-2.088;2023-02-03T17:41:19;3.73;;;2.20;;
17079;SDS011;8655;57.106;-2.088;2023-02-03T17:43:46;4.73;;;1.93;;
17079;SDS011;8655;57.106;-2.088;2023-02-03T17:46:16;3.67;;;1.97;;
17079;SDS011;8655;57.106;-2.088;2023-02-03T17:48:44;4.07;;;2.13;;
17079;SDS011;8655;57.106;-2.088;2023-02-03T17:51:11;5.67;;;2.30;;
17079;SDS011;8655;57.106;-2.088;2023-02-03T17:53:39;3.60;;;2.03;;
17079;SDS011;8655;57.106;-2.088;2023-02-03T17:56:14;5.13;;;2.20;;
17079;SDS011;8655;57.106;-2.088;2023-02-03T17:58:42;4.20;;;2.13;;
17079;SDS011;8655;57.106;-2.088;2023-02-03T18:01:09;4.97;;;2.30;;
17079;SDS011;8655;57.106;-2.088;2023-02-03T18:03:47;3.27;;;2.10;;
17079;SDS011;8655;57.106;-2.088;2023-02-03T18:06:15;5.60;;;2.43;;
17079;SDS011;8655;57.106;-2.088;2023-02-03T18:08:43;6.20;;;2.30;;
17079;SDS011;8655;57.106;-2.088;2023-02-03T18:11:10;3.17;;;1.90;;
17079;SDS011;8655;57.106;-2.088;2023-02-03T18:13:37;3.97;;;1.97;;
17079;SDS011;8655;57.106;-2.088;2023-02-03T18:16:04;4.07;;;2.03;;
17079;SDS011;8655;57.106;-2.088;2023-02-03T18:18:32;3.70;;;2.03;;